createdAt,value
2022-09-13T00:00:59.011Z,0.00
2022-09-13T00:01:59.033Z,0.00
2022-09-13T00:02:58.955Z,0.00
2022-09-13T00:03:58.960Z,0.00
2022-09-13T00:04:58.939Z,0.00
2022-09-13T00:05:58.922Z,0.00
2022-09-13T00:06:58.917Z,0.00
2022-09-13T00:07:58.893Z,0.00
2022-09-13T00:08:58.893Z,0.00
2022-09-13T00:09:58.867Z,0.00
2022-09-13T00:10:58.854Z,0.00
2022-09-13T00:11:58.843Z,0.00
2022-09-13T00:12:58.825Z,0.00
2022-09-13T00:13:58.812Z,0.00
2022-09-13T00:14:58.804Z,0.00
2022-09-13T00:15:58.868Z,0.00
2022-09-13T00:16:58.774Z,0.00
2022-09-13T00:17:58.753Z,0.00
2022-09-13T00:18:58.757Z,0.00
2022-09-13T00:19:58.731Z,0.00
2022-09-13T00:20:58.724Z,0.00
2022-09-13T00:21:58.700Z,0.00
2022-09-13T00:22:58.692Z,0.00
2022-09-13T00:23:58.693Z,0.00
2022-09-13T00:24:58.671Z,0.00
2022-09-13T00:25:58.650Z,0.00
2022-09-13T00:26:58.641Z,0.00
2022-09-13T00:27:58.624Z,0.00
2022-09-13T00:28:58.626Z,0.00
2022-09-13T00:29:58.598Z,0.00
2022-09-13T00:30:58.592Z,0.00
2022-09-13T00:31:58.615Z,0.00
2022-09-13T00:32:58.570Z,0.00
2022-09-13T00:33:58.560Z,0.00
2022-09-13T00:34:58.535Z,0.00
2022-09-13T00:35:58.513Z,0.00
2022-09-13T00:36:58.500Z,0.00
2022-09-13T00:37:58.506Z,0.00
2022-09-13T00:38:58.489Z,0.00
2022-09-13T00:39:58.488Z,0.00
2022-09-13T00:40:58.453Z,0.00
2022-09-13T00:41:58.437Z,0.00
2022-09-13T00:42:58.443Z,0.00
2022-09-13T00:43:58.409Z,0.00
2022-09-13T00:44:58.399Z,0.00
2022-09-13T00:45:58.433Z,0.00
2022-09-13T00:46:58.373Z,0.00
2022-09-13T00:47:58.370Z,0.00
2022-09-13T00:48:58.351Z,0.00
2022-09-13T00:49:58.329Z,0.00
2022-09-13T00:50:58.326Z,0.00
2022-09-13T00:51:58.303Z,0.00
2022-09-13T00:52:58.311Z,0.00
2022-09-13T00:53:58.279Z,0.00
2022-09-13T00:54:58.270Z,0.00
2022-09-13T00:55:58.253Z,0.00
2022-09-13T00:56:58.248Z,0.00
2022-09-13T00:57:58.237Z,0.00
2022-09-13T00:58:58.217Z,0.00
2022-09-13T00:59:58.199Z,0.00
2022-09-13T01:00:58.216Z,0.00
2022-09-13T01:01:58.220Z,0.00
2022-09-13T01:02:58.170Z,0.00
2022-09-13T01:03:58.154Z,0.00
2022-09-13T01:04:58.139Z,0.00
2022-09-13T01:05:58.120Z,0.00
2022-09-13T01:06:58.110Z,0.00
2022-09-13T01:07:58.111Z,0.00
2022-09-13T01:08:58.088Z,0.00
2022-09-13T01:09:58.058Z,0.00
2022-09-13T01:10:58.060Z,0.00
2022-09-13T01:11:58.038Z,0.00
2022-09-13T01:12:58.037Z,0.00
2022-09-13T01:13:58.007Z,0.00
2022-09-13T01:14:58.007Z,0.00
2022-09-13T01:15:57.987Z,0.00
2022-09-13T01:16:57.980Z,0.00
2022-09-13T01:17:57.978Z,0.00
2022-09-13T01:18:57.947Z,0.00
2022-09-13T01:19:57.929Z,0.00
2022-09-13T01:20:57.917Z,0.00
2022-09-13T01:21:57.924Z,0.00
2022-09-13T01:22:57.906Z,0.00
2022-09-13T01:23:57.882Z,0.00
2022-09-13T01:24:57.866Z,0.00
2022-09-13T01:25:57.846Z,0.00
2022-09-13T01:26:57.847Z,0.00
2022-09-13T01:27:57.839Z,0.00
2022-09-13T01:28:57.818Z,0.00
2022-09-13T01:29:57.796Z,0.00
2022-09-13T01:30:57.788Z,0.00
2022-09-13T01:31:57.851Z,0.00
2022-09-13T01:32:57.775Z,0.00
2022-09-13T01:33:57.759Z,0.00
2022-09-13T01:34:57.736Z,0.00
2022-09-13T01:35:57.715Z,0.00
2022-09-13T01:36:57.704Z,0.00
2022-09-13T01:37:57.705Z,0.00
2022-09-13T01:38:57.677Z,0.00
2022-09-13T01:39:57.706Z,0.00
2022-09-13T01:40:58.825Z,0.00
2022-09-13T01:41:57.658Z,0.00
2022-09-13T01:42:57.624Z,0.00
2022-09-13T01:43:57.614Z,0.00
2022-09-13T01:44:57.596Z,0.00
2022-09-13T01:45:57.683Z,0.00
2022-09-13T01:46:57.598Z,0.00
2022-09-13T01:47:57.576Z,0.00
2022-09-13T01:48:57.547Z,0.00
2022-09-13T01:49:57.547Z,0.00
2022-09-13T01:50:57.516Z,0.00
2022-09-13T01:51:57.515Z,0.00
2022-09-13T01:52:57.491Z,0.00
2022-09-13T01:53:57.484Z,0.00
2022-09-13T01:54:57.465Z,0.00
2022-09-13T01:55:57.465Z,0.00
2022-09-13T01:56:57.433Z,0.00
2022-09-13T01:57:57.435Z,0.00
2022-09-13T01:58:57.416Z,0.00
2022-09-13T01:59:57.417Z,0.00
2022-09-13T02:00:57.432Z,0.00
2022-09-13T02:01:57.405Z,0.00
2022-09-13T02:02:57.357Z,0.00
2022-09-13T02:03:57.353Z,0.00
2022-09-13T02:04:57.324Z,0.00
2022-09-13T02:05:57.331Z,0.00
2022-09-13T02:06:57.319Z,0.00
2022-09-13T02:07:57.317Z,0.00
2022-09-13T02:08:57.281Z,0.00
2022-09-13T02:09:57.276Z,0.00
2022-09-13T02:10:57.261Z,0.00
2022-09-13T02:11:57.233Z,0.00
2022-09-13T02:12:57.218Z,0.00
2022-09-13T02:13:57.220Z,0.00
2022-09-13T02:14:57.192Z,0.00
2022-09-13T02:15:57.193Z,0.00
2022-09-13T02:16:57.170Z,0.00
2022-09-13T02:17:57.162Z,0.00
2022-09-13T02:18:57.145Z,0.00
2022-09-13T02:19:57.135Z,0.00
2022-09-13T02:20:57.122Z,0.00
2022-09-13T02:21:57.101Z,0.00
2022-09-13T02:22:57.082Z,0.00
2022-09-13T02:23:57.087Z,0.00
2022-09-13T02:24:57.085Z,0.00
2022-09-13T02:25:57.060Z,0.00
2022-09-13T02:26:57.034Z,0.00
2022-09-13T02:27:57.034Z,0.00
2022-09-13T02:28:57.034Z,0.00
2022-09-13T02:29:57.013Z,0.00
2022-09-13T02:30:56.981Z,0.00
2022-09-13T02:31:56.994Z,0.00
2022-09-13T02:32:56.954Z,0.00
2022-09-13T02:33:56.953Z,0.00
2022-09-13T02:34:56.940Z,0.00
2022-09-13T02:35:56.921Z,0.00
2022-09-13T02:36:56.901Z,0.00
2022-09-13T02:37:56.899Z,0.00
2022-09-13T02:38:56.870Z,0.00
2022-09-13T02:39:56.912Z,0.00
2022-09-13T02:40:56.852Z,0.00
2022-09-13T02:41:56.839Z,0.00
2022-09-13T02:42:56.836Z,0.00
2022-09-13T02:43:56.837Z,0.00
2022-09-13T02:44:56.810Z,0.00
2022-09-13T02:45:56.809Z,0.00
2022-09-13T02:46:56.762Z,0.00
2022-09-13T02:47:56.761Z,0.00
2022-09-13T02:48:56.741Z,0.00
2022-09-13T02:49:56.742Z,0.00
2022-09-13T02:50:56.721Z,0.00
2022-09-13T02:51:56.713Z,0.00
2022-09-13T02:52:56.691Z,0.00
2022-09-13T02:53:56.688Z,0.00
2022-09-13T02:54:56.670Z,0.00
2022-09-13T02:55:56.653Z,0.00
2022-09-13T02:56:56.637Z,0.00
2022-09-13T02:57:56.622Z,0.00
2022-09-13T02:58:56.616Z,0.00
2022-09-13T02:59:56.609Z,0.00
2022-09-13T03:00:56.630Z,0.00
2022-09-13T03:01:56.602Z,0.00
2022-09-13T03:02:56.561Z,0.00
2022-09-13T03:03:56.551Z,0.00
2022-09-13T03:04:56.542Z,0.00
2022-09-13T03:05:56.521Z,0.00
2022-09-13T03:06:56.509Z,0.00
2022-09-13T03:07:56.521Z,0.00
2022-09-13T03:08:56.481Z,0.00
2022-09-13T03:09:56.468Z,0.00
2022-09-13T03:10:56.452Z,0.00
2022-09-13T03:11:56.441Z,0.00
2022-09-13T03:12:56.421Z,0.00
2022-09-13T03:13:56.409Z,0.00
2022-09-13T03:14:56.412Z,0.00
2022-09-13T03:15:56.379Z,0.00
2022-09-13T03:16:56.399Z,0.00
2022-09-13T03:17:56.360Z,0.00
2022-09-13T03:18:56.338Z,0.00
2022-09-13T03:19:56.340Z,0.00
2022-09-13T03:20:56.309Z,0.00
2022-09-13T03:21:56.308Z,0.00
2022-09-13T03:22:56.288Z,0.00
2022-09-13T03:23:56.278Z,0.00
2022-09-13T03:24:56.268Z,0.00
2022-09-13T03:25:56.248Z,0.00
2022-09-13T03:26:56.232Z,0.00
2022-09-13T03:27:56.229Z,0.00
2022-09-13T03:28:56.207Z,0.00
2022-09-13T03:29:56.207Z,0.00
2022-09-13T03:30:56.177Z,0.00
2022-09-13T03:31:56.231Z,0.00
2022-09-13T03:32:56.157Z,0.00
2022-09-13T03:33:56.147Z,0.00
2022-09-13T03:34:56.169Z,0.00
2022-09-13T03:35:56.124Z,0.00
2022-09-13T03:36:56.110Z,0.00
2022-09-13T03:37:56.099Z,0.00
2022-09-13T03:38:56.075Z,0.00
2022-09-13T03:39:56.113Z,0.00
2022-09-13T03:40:56.057Z,0.00
2022-09-13T03:41:56.036Z,0.00
2022-09-13T03:42:56.026Z,0.00
2022-09-13T03:43:56.018Z,0.00
2022-09-13T03:44:56.011Z,0.00
2022-09-13T03:45:56.044Z,0.00
2022-09-13T03:46:55.974Z,0.00
2022-09-13T03:47:55.961Z,0.00
2022-09-13T03:48:55.936Z,0.00
2022-09-13T03:49:55.948Z,0.00
2022-09-13T03:50:55.919Z,0.00
2022-09-13T03:51:55.903Z,0.00
2022-09-13T03:52:55.888Z,0.00
2022-09-13T03:53:55.885Z,0.00
2022-09-13T03:54:55.865Z,0.00
2022-09-13T03:55:55.859Z,0.00
2022-09-13T03:56:55.838Z,0.00
2022-09-13T03:57:55.836Z,0.00
2022-09-13T03:58:55.804Z,0.00
2022-09-13T03:59:55.807Z,0.00
2022-09-13T04:00:55.819Z,0.00
2022-09-13T04:01:55.842Z,0.00
2022-09-13T04:02:55.763Z,0.00
2022-09-13T04:03:57.061Z,0.00
2022-09-13T04:04:55.725Z,0.00
2022-09-13T04:05:55.738Z,0.00
2022-09-13T04:06:55.702Z,0.00
2022-09-13T04:07:55.696Z,0.00
2022-09-13T04:08:55.698Z,0.00
2022-09-13T04:09:55.667Z,0.00
2022-09-13T04:10:55.647Z,0.00
2022-09-13T04:11:55.644Z,0.00
2022-09-13T04:12:55.626Z,0.00
2022-09-13T04:13:55.634Z,0.00
2022-09-13T04:14:55.594Z,0.00
2022-09-13T04:15:55.593Z,0.00
2022-09-13T04:16:55.594Z,0.00
2022-09-13T04:17:55.566Z,0.00
2022-09-13T04:18:55.568Z,0.00
2022-09-13T04:19:55.544Z,0.00
2022-09-13T04:20:55.513Z,0.00
2022-09-13T04:21:55.518Z,0.00
2022-09-13T04:22:55.493Z,0.00
2022-09-13T04:23:55.501Z,0.00
2022-09-13T04:24:59.087Z,0.00
2022-09-13T04:25:56.452Z,0.00
2022-09-13T04:26:55.431Z,0.00
2022-09-13T04:27:55.423Z,0.00
2022-09-13T04:28:55.426Z,0.00
2022-09-13T04:29:55.408Z,0.00
2022-09-13T04:30:55.385Z,0.00
2022-09-13T04:31:55.439Z,0.00
2022-09-13T04:32:55.352Z,0.00
2022-09-13T04:33:55.363Z,0.00
2022-09-13T04:34:55.333Z,0.00
2022-09-13T04:35:55.334Z,0.00
2022-09-13T04:36:55.306Z,0.00
2022-09-13T04:37:55.306Z,0.00
2022-09-13T04:38:55.293Z,0.00
2022-09-13T04:39:55.285Z,0.00
2022-09-13T04:40:55.259Z,5.62
2022-09-13T04:41:55.250Z,5.62
2022-09-13T04:42:55.227Z,5.62
2022-09-13T04:43:55.233Z,5.62
2022-09-13T04:44:55.201Z,5.62
2022-09-13T04:45:55.217Z,5.62
2022-09-13T04:46:55.190Z,5.62
2022-09-13T04:47:55.161Z,5.62
2022-09-13T04:48:55.382Z,11.25
2022-09-13T04:49:55.370Z,11.25
2022-09-13T04:50:55.111Z,11.25
2022-09-13T04:51:55.101Z,11.25
2022-09-13T04:52:55.092Z,16.88
2022-09-13T04:53:55.103Z,16.88
2022-09-13T04:54:55.061Z,16.88
2022-09-13T04:55:55.062Z,22.50
2022-09-13T04:56:55.041Z,22.50
2022-09-13T04:57:55.020Z,28.12
2022-09-13T04:58:55.030Z,28.12
2022-09-13T04:59:55.010Z,28.12
2022-09-13T05:00:55.073Z,28.12
2022-09-13T05:01:55.031Z,33.75
2022-09-13T05:02:54.950Z,33.75
2022-09-13T05:03:54.966Z,33.75
2022-09-13T05:04:54.940Z,39.38
2022-09-13T05:05:54.919Z,39.38
2022-09-13T05:06:54.910Z,39.38
2022-09-13T05:07:54.903Z,45.00
2022-09-13T05:08:54.900Z,45.00
2022-09-13T05:09:54.872Z,45.00
2022-09-13T05:10:54.848Z,45.00
2022-09-13T05:11:54.843Z,45.00
2022-09-13T05:12:54.829Z,39.38
2022-09-13T05:13:54.830Z,39.38
2022-09-13T05:14:54.800Z,39.38
2022-09-13T05:15:54.825Z,45.00
2022-09-13T05:16:54.770Z,50.62
2022-09-13T05:17:54.758Z,50.62
2022-09-13T05:18:54.770Z,50.62
2022-09-13T05:19:54.743Z,56.25
2022-09-13T05:20:54.732Z,61.88
2022-09-13T05:21:54.707Z,67.50
2022-09-13T05:22:54.706Z,73.12
2022-09-13T05:23:54.692Z,78.75
2022-09-13T05:24:54.670Z,84.38
2022-09-13T05:25:54.663Z,84.38
2022-09-13T05:26:54.643Z,90.00
2022-09-13T05:27:54.642Z,90.00
2022-09-13T05:28:54.676Z,90.00
2022-09-13T05:29:54.613Z,95.62
2022-09-13T05:30:54.632Z,95.62
2022-09-13T05:31:54.578Z,95.62
2022-09-13T05:32:54.569Z,95.62
2022-09-13T05:33:54.559Z,95.62
2022-09-13T05:34:54.537Z,95.62
2022-09-13T05:35:54.517Z,101.25
2022-09-13T05:36:54.722Z,101.25
2022-09-13T05:37:54.496Z,101.25
2022-09-13T05:39:12.227Z,95.62
2022-09-13T05:40:10.661Z,90.00
2022-09-13T05:40:55.507Z,90.00
2022-09-13T05:41:54.438Z,84.38
2022-09-13T05:42:54.426Z,78.75
2022-09-13T05:43:58.541Z,78.75
2022-09-13T05:44:55.397Z,78.75
2022-09-13T05:45:54.423Z,84.38
2022-09-13T05:46:54.392Z,84.38
2022-09-13T05:47:54.357Z,90.00
2022-09-13T05:48:55.415Z,95.62
2022-09-13T05:50:11.845Z,101.25
2022-09-13T05:50:58.313Z,106.88
2022-09-13T05:51:54.309Z,106.88
2022-09-13T05:52:54.293Z,106.88
2022-09-13T05:53:54.294Z,106.88
2022-09-13T05:54:54.271Z,112.50
2022-09-13T05:55:54.246Z,123.75
2022-09-13T05:56:54.241Z,135.00
2022-09-13T05:57:54.227Z,151.88
2022-09-13T05:58:54.228Z,163.12
2022-09-13T05:59:54.198Z,180.00
2022-09-13T06:00:54.190Z,180.00
2022-09-13T06:01:54.221Z,191.25
2022-09-13T06:02:54.241Z,196.88
2022-09-13T06:03:54.159Z,208.12
2022-09-13T06:04:54.155Z,225.00
2022-09-13T06:05:54.119Z,253.12
2022-09-13T06:06:54.105Z,343.12
2022-09-13T06:07:54.096Z,241.88
2022-09-13T06:08:54.085Z,213.75
2022-09-13T06:09:54.056Z,208.12
2022-09-13T06:10:54.055Z,208.12
2022-09-13T06:11:54.049Z,275.62
2022-09-13T06:12:54.027Z,343.12
2022-09-13T06:13:54.037Z,151.88
2022-09-13T06:14:53.994Z,157.50
2022-09-13T06:15:54.026Z,163.12
2022-09-13T06:16:53.965Z,168.75
2022-09-13T06:17:53.954Z,174.38
2022-09-13T06:18:53.976Z,185.62
2022-09-13T06:19:53.952Z,202.50
2022-09-13T06:20:53.952Z,208.12
2022-09-13T06:21:53.909Z,208.12
2022-09-13T06:22:53.906Z,219.38
2022-09-13T06:23:53.898Z,208.12
2022-09-13T06:24:53.866Z,213.75
2022-09-13T06:25:53.846Z,219.38
2022-09-13T06:26:53.837Z,219.38
2022-09-13T06:27:53.818Z,236.25
2022-09-13T06:28:53.816Z,225.00
2022-09-13T06:29:53.793Z,247.50
2022-09-13T06:30:53.810Z,168.75
2022-09-13T06:31:53.766Z,123.75
2022-09-13T06:32:53.774Z,112.50
2022-09-13T06:33:53.767Z,106.88
2022-09-13T06:34:53.749Z,101.25
2022-09-13T06:35:53.714Z,106.88
2022-09-13T06:36:53.764Z,106.88
2022-09-13T06:37:53.686Z,101.25
2022-09-13T06:38:53.702Z,101.25
2022-09-13T06:39:53.713Z,95.62
2022-09-13T06:40:53.653Z,90.00
2022-09-13T06:41:53.634Z,90.00
2022-09-13T06:42:53.624Z,90.00
2022-09-13T06:43:53.625Z,90.00
2022-09-13T06:44:53.596Z,78.75
2022-09-13T06:45:53.652Z,67.50
2022-09-13T06:46:53.572Z,56.25
2022-09-13T06:47:53.554Z,45.00
2022-09-13T06:48:53.555Z,39.38
2022-09-13T06:49:53.534Z,33.75
2022-09-13T06:50:53.517Z,28.12
2022-09-13T06:51:53.503Z,28.12
2022-09-13T06:52:53.496Z,28.12
2022-09-13T06:53:53.483Z,28.12
2022-09-13T06:54:53.463Z,28.12
2022-09-13T06:55:53.443Z,28.12
2022-09-13T06:56:53.443Z,28.12
2022-09-13T06:57:53.417Z,28.12
2022-09-13T06:58:53.427Z,28.12
2022-09-13T06:59:53.405Z,28.12
2022-09-13T07:00:56.160Z,28.12
2022-09-13T07:01:53.405Z,28.12
2022-09-13T07:02:53.356Z,28.12
2022-09-13T07:03:53.353Z,28.12
2022-09-13T07:04:53.334Z,33.75
2022-09-13T07:05:53.316Z,33.75
2022-09-13T07:06:53.304Z,33.75
2022-09-13T07:07:53.293Z,33.75
2022-09-13T07:08:53.292Z,33.75
2022-09-13T07:09:53.264Z,39.38
2022-09-13T07:10:53.252Z,39.38
2022-09-13T07:11:53.236Z,39.38
2022-09-13T07:12:53.224Z,39.38
2022-09-13T07:13:53.213Z,45.00
2022-09-13T07:14:53.202Z,50.62
2022-09-13T07:15:53.202Z,50.62
2022-09-13T07:16:53.174Z,56.25
2022-09-13T07:17:53.154Z,56.25
2022-09-13T07:18:53.155Z,56.25
2022-09-13T07:19:53.126Z,50.62
2022-09-13T07:20:53.123Z,50.62
2022-09-13T07:21:53.099Z,45.00
2022-09-13T07:22:53.099Z,45.00
2022-09-13T07:23:53.086Z,39.38
2022-09-13T07:24:53.068Z,33.75
2022-09-13T07:25:53.046Z,28.12
2022-09-13T07:26:53.035Z,28.12
2022-09-13T07:27:53.025Z,22.50
2022-09-13T07:28:53.023Z,22.50
2022-09-13T07:29:53.002Z,28.12
2022-09-13T07:30:53.006Z,28.12
2022-09-13T07:31:52.972Z,28.12
2022-09-13T07:32:52.966Z,28.12
2022-09-13T07:33:53.252Z,28.12
2022-09-13T07:34:52.933Z,28.12
2022-09-13T07:35:52.912Z,28.12
2022-09-13T07:36:52.914Z,22.50
2022-09-13T07:37:52.891Z,22.50
2022-09-13T07:38:52.908Z,22.50
2022-09-13T07:39:52.884Z,22.50
2022-09-13T07:40:52.856Z,16.88
2022-09-13T07:41:52.840Z,16.88
2022-09-13T07:42:52.834Z,16.88
2022-09-13T07:43:52.833Z,16.88
2022-09-13T07:44:52.802Z,16.88
2022-09-13T07:45:52.811Z,22.50
2022-09-13T07:46:52.771Z,22.50
2022-09-13T07:47:52.754Z,22.50
2022-09-13T07:48:52.761Z,28.12
2022-09-13T07:49:52.731Z,33.75
2022-09-13T07:50:52.732Z,33.75
2022-09-13T07:51:52.712Z,39.38
2022-09-13T07:52:52.692Z,39.38
2022-09-13T07:53:57.065Z,50.62
2022-09-13T07:54:53.664Z,56.25
2022-09-13T07:55:52.652Z,56.25
2022-09-13T07:56:52.643Z,61.88
2022-09-13T07:57:52.628Z,67.50
2022-09-13T07:58:52.646Z,73.12
2022-09-13T07:59:52.591Z,73.12
2022-09-13T08:00:52.590Z,73.12
2022-09-13T08:01:52.738Z,73.12
2022-09-13T08:02:52.562Z,73.12
2022-09-13T08:03:52.560Z,61.88
2022-09-13T08:04:52.532Z,56.25
2022-09-13T08:05:52.521Z,56.25
2022-09-13T08:06:52.525Z,50.62
2022-09-13T08:07:52.494Z,50.62
2022-09-13T08:08:52.493Z,56.25
2022-09-13T08:09:52.464Z,61.88
2022-09-13T08:10:52.464Z,61.88
2022-09-13T08:11:52.440Z,61.88
2022-09-13T08:12:52.432Z,73.12
2022-09-13T08:13:52.433Z,78.75
2022-09-13T08:14:52.402Z,90.00
2022-09-13T08:15:52.419Z,101.25
2022-09-13T08:16:52.371Z,106.88
2022-09-13T08:17:52.372Z,118.12
2022-09-13T08:18:52.342Z,123.75
2022-09-13T08:19:52.329Z,140.62
2022-09-13T08:20:52.330Z,146.25
2022-09-13T08:21:52.313Z,185.62
2022-09-13T08:22:52.309Z,196.88
2022-09-13T08:23:52.283Z,191.25
2022-09-13T08:24:52.294Z,202.50
2022-09-13T08:25:52.251Z,202.50
2022-09-13T08:26:52.388Z,219.38
2022-09-13T08:27:52.241Z,236.25
2022-09-13T08:28:52.220Z,247.50
2022-09-13T08:29:52.203Z,236.25
2022-09-13T08:30:52.217Z,208.12
2022-09-13T08:31:52.177Z,180.00
2022-09-13T08:32:52.182Z,168.75
2022-09-13T08:33:52.337Z,157.50
2022-09-13T08:34:52.141Z,157.50
2022-09-13T08:35:52.126Z,151.88
2022-09-13T08:36:52.122Z,151.88
2022-09-13T08:37:52.123Z,146.25
2022-09-13T08:38:52.095Z,135.00
2022-09-13T08:39:52.099Z,135.00
2022-09-13T08:40:52.063Z,129.38
2022-09-13T08:41:52.035Z,129.38
2022-09-13T08:42:52.039Z,129.38
2022-09-13T08:43:52.009Z,135.00
2022-09-13T08:44:51.995Z,129.38
2022-09-13T08:45:52.012Z,123.75
2022-09-13T08:46:51.971Z,123.75
2022-09-13T08:47:51.969Z,118.12
2022-09-13T08:48:51.954Z,118.12
2022-09-13T08:49:51.945Z,112.50
2022-09-13T08:50:51.925Z,112.50
2022-09-13T08:51:51.901Z,118.12
2022-09-13T08:52:51.902Z,123.75
2022-09-13T08:53:51.881Z,129.38
2022-09-13T08:54:54.854Z,135.00
2022-09-13T08:55:52.854Z,140.62
2022-09-13T08:56:51.854Z,146.25
2022-09-13T08:57:51.858Z,163.12
2022-09-13T08:58:51.815Z,196.88
2022-09-13T08:59:51.794Z,219.38
2022-09-13T09:00:51.809Z,247.50
2022-09-13T09:01:51.776Z,264.38
2022-09-13T09:02:51.814Z,270.00
2022-09-13T09:03:51.771Z,270.00
2022-09-13T09:04:51.725Z,270.00
2022-09-13T09:05:51.714Z,292.50
2022-09-13T09:06:54.007Z,275.62
2022-09-13T09:07:51.704Z,258.75
2022-09-13T09:08:51.680Z,247.50
2022-09-13T09:09:51.665Z,230.62
2022-09-13T09:10:51.653Z,208.12
2022-09-13T09:11:51.633Z,202.50
2022-09-13T09:12:51.640Z,196.88
2022-09-13T09:14:02.563Z,196.88
2022-09-13T09:14:51.603Z,196.88
2022-09-13T09:15:51.630Z,196.88
2022-09-13T09:16:51.576Z,191.25
2022-09-13T09:17:51.563Z,180.00
2022-09-13T09:18:51.553Z,180.00
2022-09-13T09:19:51.533Z,174.38
2022-09-13T09:20:51.524Z,168.75
2022-09-13T09:21:51.495Z,168.75
2022-09-13T09:22:51.509Z,174.38
2022-09-13T09:23:51.473Z,180.00
2022-09-13T09:24:51.469Z,180.00
2022-09-13T09:25:51.447Z,185.62
2022-09-13T09:26:51.436Z,196.88
2022-09-13T09:27:51.442Z,196.88
2022-09-13T09:28:51.433Z,196.88
2022-09-13T09:29:51.396Z,191.25
2022-09-13T09:30:51.458Z,185.62
2022-09-13T09:31:51.376Z,180.00
2022-09-13T09:32:51.377Z,180.00
2022-09-13T09:33:51.369Z,174.38
2022-09-13T09:34:51.347Z,180.00
2022-09-13T09:35:51.316Z,185.62
2022-09-13T09:36:51.318Z,196.88
2022-09-13T09:37:51.294Z,208.12
2022-09-13T09:38:51.288Z,225.00
2022-09-13T09:39:51.303Z,230.62
2022-09-13T09:40:51.260Z,236.25
2022-09-13T09:41:51.235Z,247.50
2022-09-13T09:42:51.235Z,241.88
2022-09-13T09:43:51.205Z,219.38
2022-09-13T09:44:51.204Z,213.75
2022-09-13T09:45:51.269Z,196.88
2022-09-13T09:46:51.176Z,191.25
2022-09-13T09:47:51.178Z,180.00
2022-09-13T09:48:51.156Z,168.75
2022-09-13T09:49:51.127Z,157.50
2022-09-13T09:50:51.137Z,163.12
2022-09-13T09:51:51.104Z,196.88
2022-09-13T09:52:51.107Z,157.50
2022-09-13T09:53:51.076Z,168.75
2022-09-13T09:54:51.092Z,191.25
2022-09-13T09:55:51.046Z,174.38
2022-09-13T09:56:51.037Z,163.12
2022-09-13T09:57:51.037Z,163.12
2022-09-13T09:58:51.019Z,151.88
2022-09-13T09:59:50.995Z,151.88
2022-09-13T10:00:50.984Z,146.25
2022-09-13T10:01:51.002Z,140.62
2022-09-13T10:02:50.971Z,146.25
2022-09-13T10:03:50.936Z,146.25
2022-09-13T10:04:50.928Z,140.62
2022-09-13T10:05:50.915Z,140.62
2022-09-13T10:06:50.907Z,140.62
2022-09-13T10:07:50.899Z,140.62
2022-09-13T10:08:50.876Z,146.25
2022-09-13T10:09:50.869Z,151.88
2022-09-13T10:10:50.856Z,157.50
2022-09-13T10:11:50.837Z,157.50
2022-09-13T10:12:50.918Z,157.50
2022-09-13T10:13:50.824Z,163.12
2022-09-13T10:14:50.800Z,168.75
2022-09-13T10:15:50.785Z,180.00
2022-09-13T10:16:50.805Z,185.62
2022-09-13T10:17:50.770Z,185.62
2022-09-13T10:18:50.746Z,180.00
2022-09-13T10:19:50.731Z,168.75
2022-09-13T10:20:50.719Z,168.75
2022-09-13T10:21:50.719Z,168.75
2022-09-13T10:22:50.701Z,174.38
2022-09-13T10:23:51.765Z,163.12
2022-09-13T10:24:50.687Z,157.50
2022-09-13T10:25:50.659Z,157.50
2022-09-13T10:26:50.630Z,168.75
2022-09-13T10:27:50.651Z,168.75
2022-09-13T10:28:50.614Z,168.75
2022-09-13T10:29:50.630Z,174.38
2022-09-13T10:30:50.597Z,168.75
2022-09-13T10:31:50.571Z,174.38
2022-09-13T10:32:50.570Z,174.38
2022-09-13T10:33:50.555Z,180.00
2022-09-13T10:34:50.533Z,185.62
2022-09-13T10:35:50.523Z,185.62
2022-09-13T10:36:52.923Z,191.25
2022-09-13T10:37:50.507Z,196.88
2022-09-13T10:38:50.628Z,202.50
2022-09-13T10:39:50.493Z,208.12
2022-09-13T10:40:50.460Z,196.88
2022-09-13T10:41:50.441Z,196.88
2022-09-13T10:42:50.434Z,202.50
2022-09-13T10:43:50.411Z,208.12
2022-09-13T10:44:50.391Z,213.75
2022-09-13T10:45:50.400Z,208.12
2022-09-13T10:46:50.403Z,196.88
2022-09-13T10:47:50.379Z,196.88
2022-09-13T10:48:50.373Z,196.88
2022-09-13T10:49:50.359Z,191.25
2022-09-13T10:50:50.313Z,180.00
2022-09-13T10:51:50.330Z,180.00
2022-09-13T10:52:50.313Z,180.00
2022-09-13T10:53:50.310Z,180.00
2022-09-13T10:54:50.275Z,174.38
2022-09-13T10:55:50.262Z,168.75
2022-09-13T10:56:50.242Z,163.12
2022-09-13T10:57:50.239Z,157.50
2022-09-13T10:58:50.210Z,151.88
2022-09-13T10:59:50.199Z,151.88
2022-09-13T11:00:50.223Z,157.50
2022-09-13T11:01:50.172Z,168.75
2022-09-13T11:02:50.166Z,168.75
2022-09-13T11:03:50.231Z,174.38
2022-09-13T11:04:50.131Z,174.38
2022-09-13T11:05:50.140Z,168.75
2022-09-13T11:06:50.103Z,168.75
2022-09-13T11:07:50.141Z,174.38
2022-09-13T11:08:50.072Z,180.00
2022-09-13T11:09:50.071Z,185.62
2022-09-13T11:10:50.066Z,191.25
2022-09-13T11:11:50.042Z,191.25
2022-09-13T11:12:50.041Z,191.25
2022-09-13T11:13:50.107Z,185.62
2022-09-13T11:14:50.012Z,180.00
2022-09-13T11:15:49.991Z,180.00
2022-09-13T11:16:50.030Z,174.38
2022-09-13T11:17:49.973Z,174.38
2022-09-13T11:18:49.944Z,174.38
2022-09-13T11:19:52.923Z,180.00
2022-09-13T11:20:50.929Z,191.25
2022-09-13T11:21:49.913Z,196.88
2022-09-13T11:22:49.909Z,202.50
2022-09-13T11:23:49.945Z,202.50
2022-09-13T11:24:49.875Z,196.88
2022-09-13T11:25:49.860Z,196.88
2022-09-13T11:26:49.843Z,196.88
2022-09-13T11:27:49.845Z,196.88
2022-09-13T11:28:49.805Z,196.88
2022-09-13T11:29:49.807Z,191.25
2022-09-13T11:30:49.797Z,185.62
2022-09-13T11:31:49.839Z,185.62
2022-09-13T11:32:49.765Z,185.62
2022-09-13T11:33:49.896Z,185.62
2022-09-13T11:34:49.747Z,180.00
2022-09-13T11:35:49.728Z,180.00
2022-09-13T11:36:49.705Z,180.00
2022-09-13T11:37:49.704Z,180.00
2022-09-13T11:38:49.689Z,185.62
2022-09-13T11:39:49.713Z,191.25
2022-09-13T11:40:49.671Z,191.25
2022-09-13T11:41:49.644Z,196.88
2022-09-13T11:42:49.644Z,191.25
2022-09-13T11:43:49.735Z,191.25
2022-09-13T11:44:49.615Z,185.62
2022-09-13T11:45:49.634Z,185.62
2022-09-13T11:46:49.575Z,180.00
2022-09-13T11:47:49.574Z,174.38
2022-09-13T11:48:49.552Z,174.38
2022-09-13T11:49:49.547Z,174.38
2022-09-13T11:50:49.528Z,174.38
2022-09-13T11:51:49.520Z,174.38
2022-09-13T11:52:49.516Z,174.38
2022-09-13T11:53:49.576Z,180.00
2022-09-13T11:54:49.468Z,180.00
2022-09-13T11:55:49.461Z,185.62
2022-09-13T11:56:49.437Z,196.88
2022-09-13T11:57:49.454Z,191.25
2022-09-13T11:58:49.427Z,196.88
2022-09-13T11:59:49.408Z,202.50
2022-09-13T12:00:49.399Z,219.38
2022-09-13T12:01:49.487Z,230.62
2022-09-13T12:02:49.472Z,225.00
2022-09-13T12:03:49.429Z,213.75
2022-09-13T12:05:10.972Z,225.00
2022-09-13T12:05:50.337Z,230.62
2022-09-13T12:06:49.328Z,230.62
2022-09-13T12:07:49.298Z,230.62
2022-09-13T12:08:49.296Z,225.00
2022-09-13T12:09:49.276Z,225.00
2022-09-13T12:10:49.261Z,225.00
2022-09-13T12:11:49.258Z,236.25
2022-09-13T12:12:49.238Z,230.62
2022-09-13T12:13:49.342Z,202.50
2022-09-13T12:14:49.202Z,202.50
2022-09-13T12:15:49.208Z,196.88
2022-09-13T12:16:49.223Z,208.12
2022-09-13T12:17:49.169Z,219.38
2022-09-13T12:18:49.163Z,247.50
2022-09-13T12:19:49.142Z,180.00
2022-09-13T12:20:49.120Z,185.62
2022-09-13T12:21:49.120Z,180.00
2022-09-13T12:22:49.099Z,191.25
2022-09-13T12:23:49.233Z,185.62
2022-09-13T12:24:49.074Z,174.38
2022-09-13T12:25:49.084Z,174.38
2022-09-13T12:26:49.051Z,264.38
2022-09-13T12:27:49.030Z,247.50
2022-09-13T12:28:49.023Z,213.75
2022-09-13T12:29:49.013Z,213.75
2022-09-13T12:30:48.991Z,202.50
2022-09-13T12:31:49.115Z,225.00
2022-09-13T12:32:48.969Z,253.12
2022-09-13T12:33:49.086Z,225.00
2022-09-13T12:34:48.941Z,196.88
2022-09-13T12:35:48.931Z,241.88
2022-09-13T12:36:48.922Z,241.88
2022-09-13T12:37:48.901Z,219.38
2022-09-13T12:38:48.888Z,185.62
2022-09-13T12:39:48.929Z,185.62
2022-09-13T12:40:48.864Z,202.50
2022-09-13T12:41:48.865Z,180.00
2022-09-13T12:42:48.840Z,185.62
2022-09-13T12:43:48.943Z,180.00
2022-09-13T12:44:48.810Z,191.25
2022-09-13T12:45:48.841Z,180.00
2022-09-13T12:46:48.790Z,168.75
2022-09-13T12:47:48.772Z,157.50
2022-09-13T12:48:48.769Z,191.25
2022-09-13T12:49:48.742Z,213.75
2022-09-13T12:50:48.726Z,151.88
2022-09-13T12:51:48.742Z,151.88